createdAt,value
2023-05-09T00:00:33.557Z,11.20
2023-05-09T00:01:33.572Z,10.60
2023-05-09T00:02:33.579Z,10.90
2023-05-09T00:03:33.556Z,11.50
2023-05-09T00:04:33.571Z,11.00
2023-05-09T00:05:33.553Z,11.20
2023-05-09T00:06:33.629Z,10.90
2023-05-09T00:07:33.520Z,10.80
2023-05-09T00:08:33.492Z,11.00
2023-05-09T00:09:33.504Z,11.40
2023-05-09T00:10:33.495Z,11.00
2023-05-09T00:11:33.495Z,11.20
2023-05-09T00:12:33.530Z,10.80
2023-05-09T00:13:33.503Z,10.30
2023-05-09T00:14:33.613Z,10.80
2023-05-09T00:15:33.462Z,10.70
2023-05-09T00:16:33.467Z,11.00
2023-05-09T00:17:33.498Z,10.30
2023-05-09T00:18:33.422Z,10.20
2023-05-09T00:19:33.489Z,10.30
2023-05-09T00:20:33.415Z,11.30
2023-05-09T00:21:33.446Z,10.30
2023-05-09T00:22:33.489Z,10.40
2023-05-09T00:23:33.420Z,10.60
2023-05-09T00:24:33.388Z,10.80
2023-05-09T00:25:33.450Z,11.70
2023-05-09T00:26:33.410Z,10.80
2023-05-09T00:27:33.387Z,10.60
2023-05-09T00:28:33.365Z,10.40
2023-05-09T00:29:33.366Z,10.50
2023-05-09T00:30:33.372Z,11.20
2023-05-09T00:31:33.390Z,10.00
2023-05-09T00:32:33.418Z,10.10
2023-05-09T00:33:33.398Z,10.90
2023-05-09T00:34:33.330Z,10.70
2023-05-09T00:35:33.350Z,11.20
2023-05-09T00:36:33.313Z,10.80
2023-05-09T00:37:33.323Z,10.30
2023-05-09T00:38:33.385Z,10.90
2023-05-09T00:39:33.327Z,11.50
2023-05-09T00:40:33.275Z,11.20
2023-05-09T00:41:33.298Z,11.10
2023-05-09T00:42:33.283Z,10.50
2023-05-09T00:43:33.301Z,10.50
2023-05-09T00:44:33.302Z,10.80
2023-05-09T00:45:33.278Z,10.90
2023-05-09T00:46:33.277Z,10.80
2023-05-09T00:47:33.416Z,10.70
2023-05-09T00:48:33.262Z,11.00
2023-05-09T00:49:33.282Z,10.70
2023-05-09T00:50:33.239Z,10.90
2023-05-09T00:51:33.244Z,10.50
2023-05-09T00:52:33.238Z,11.00
2023-05-09T00:53:33.286Z,10.60
2023-05-09T00:54:33.286Z,10.50
2023-05-09T00:55:33.241Z,10.40
2023-05-09T00:56:33.176Z,11.20
2023-05-09T00:57:33.196Z,11.40
2023-05-09T00:58:33.192Z,11.30
2023-05-09T00:59:33.185Z,10.90
2023-05-09T01:00:33.178Z,11.40
2023-05-09T01:01:33.235Z,11.30
2023-05-09T01:02:33.264Z,10.50
2023-05-09T01:03:33.234Z,10.80
2023-05-09T01:04:33.142Z,10.70
2023-05-09T01:05:33.207Z,11.60
2023-05-09T01:06:33.124Z,10.60
2023-05-09T01:07:33.148Z,10.60
2023-05-09T01:08:33.109Z,10.40
2023-05-09T01:09:33.112Z,10.30
2023-05-09T01:10:33.199Z,10.70
2023-05-09T01:11:33.129Z,9.80
2023-05-09T01:12:33.086Z,10.30
2023-05-09T01:13:33.120Z,11.60
2023-05-09T01:14:33.088Z,10.90
2023-05-09T01:15:33.134Z,11.10
2023-05-09T01:16:33.060Z,12.00
2023-05-09T01:17:33.114Z,12.50
2023-05-09T01:18:33.082Z,11.60
2023-05-09T01:19:33.102Z,11.70
2023-05-09T01:20:33.027Z,12.40
2023-05-09T01:21:33.059Z,13.20
2023-05-09T01:22:33.026Z,12.80
2023-05-09T01:23:33.031Z,12.30
2023-05-09T01:24:33.019Z,12.70
2023-05-09T01:25:33.048Z,12.70
2023-05-09T01:26:33.089Z,12.80
2023-05-09T01:27:33.009Z,12.70
2023-05-09T01:28:32.987Z,12.80
2023-05-09T01:29:33.018Z,12.40
2023-05-09T01:30:32.987Z,12.60
2023-05-09T01:31:33.006Z,12.50
2023-05-09T01:32:32.977Z,13.10
2023-05-09T01:33:32.976Z,12.50
2023-05-09T01:34:32.951Z,12.40
2023-05-09T01:35:32.967Z,12.30
2023-05-09T01:36:32.962Z,12.40
2023-05-09T01:37:33.008Z,11.60
2023-05-09T01:38:32.924Z,11.50
2023-05-09T01:39:32.936Z,11.90
2023-05-09T01:40:32.893Z,11.70
2023-05-09T01:41:32.931Z,11.90
2023-05-09T01:42:33.011Z,11.00
2023-05-09T01:43:32.897Z,12.00
2023-05-09T01:44:32.875Z,11.50
2023-05-09T01:45:32.921Z,11.50
2023-05-09T01:46:32.874Z,12.50
2023-05-09T01:47:32.893Z,12.70
2023-05-09T01:48:32.849Z,13.70
2023-05-09T01:49:32.862Z,13.80
2023-05-09T01:50:32.824Z,13.30
2023-05-09T01:51:32.842Z,12.70
2023-05-09T01:52:32.835Z,13.20
2023-05-09T01:53:32.824Z,13.70
2023-05-09T01:54:32.797Z,13.10
2023-05-09T01:55:32.823Z,12.50
2023-05-09T01:56:32.787Z,12.80
2023-05-09T01:57:32.792Z,12.10
2023-05-09T01:58:32.877Z,13.20
2023-05-09T01:59:32.790Z,13.00
2023-05-09T02:00:32.753Z,13.30
2023-05-09T02:01:32.764Z,12.20
2023-05-09T02:02:32.816Z,12.20
2023-05-09T02:03:32.791Z,12.70
2023-05-09T02:04:32.735Z,12.60
2023-05-09T02:05:32.725Z,12.50
2023-05-09T02:06:32.760Z,12.70
2023-05-09T02:07:32.767Z,12.20
2023-05-09T02:08:32.718Z,12.20
2023-05-09T02:09:32.742Z,12.90
2023-05-09T02:10:32.686Z,13.50
2023-05-09T02:11:32.725Z,12.10
2023-05-09T02:12:32.694Z,12.80
2023-05-09T02:13:32.695Z,12.20
2023-05-09T02:14:32.777Z,13.10
2023-05-09T02:15:33.072Z,12.10
2023-05-09T02:16:32.681Z,12.00
2023-05-09T02:17:32.659Z,12.00
2023-05-09T02:18:32.750Z,11.70
2023-05-09T02:19:32.651Z,11.40
2023-05-09T02:20:32.634Z,11.00
2023-05-09T02:21:32.670Z,12.20
2023-05-09T02:22:32.606Z,12.60
2023-05-09T02:23:32.611Z,13.10
2023-05-09T02:24:32.594Z,12.20
2023-05-09T02:25:32.611Z,13.20
2023-05-09T02:26:32.599Z,12.70
2023-05-09T02:27:32.609Z,12.70
2023-05-09T02:28:32.562Z,12.80
2023-05-09T02:29:32.573Z,12.90
2023-05-09T02:30:32.667Z,13.10
2023-05-09T02:31:32.602Z,13.10
2023-05-09T02:32:32.624Z,13.00
2023-05-09T02:33:32.546Z,12.80
2023-05-09T02:34:32.519Z,13.40
2023-05-09T02:35:32.582Z,12.90
2023-05-09T02:36:32.521Z,13.10
2023-05-09T02:37:32.624Z,13.80
2023-05-09T02:38:32.526Z,13.70
2023-05-09T02:39:32.518Z,13.00
2023-05-09T02:40:32.502Z,12.90
2023-05-09T02:41:32.503Z,14.90
2023-05-09T02:42:32.491Z,14.10
2023-05-09T02:43:32.505Z,13.50
2023-05-09T02:44:32.452Z,13.70
2023-05-09T02:45:32.467Z,14.00
2023-05-09T02:46:32.616Z,12.90
2023-05-09T02:47:32.471Z,13.40
2023-05-09T02:48:32.427Z,13.20
2023-05-09T02:49:32.897Z,13.80
2023-05-09T02:50:32.436Z,13.30
2023-05-09T02:51:32.446Z,13.10
2023-05-09T02:52:32.419Z,13.50
2023-05-09T02:53:32.410Z,13.80
2023-05-09T02:54:32.387Z,14.30
2023-05-09T02:55:32.391Z,14.60
2023-05-09T02:56:32.411Z,14.30
2023-05-09T02:57:32.407Z,14.60
2023-05-09T02:58:32.369Z,15.30
2023-05-09T02:59:32.382Z,14.90
2023-05-09T03:00:32.400Z,15.00
2023-05-09T03:01:32.424Z,14.70
2023-05-09T03:02:32.532Z,15.10
2023-05-09T03:03:32.421Z,14.30
2023-05-09T03:04:32.352Z,15.10
2023-05-09T03:05:32.360Z,15.80
2023-05-09T03:06:32.307Z,15.50
2023-05-09T03:07:32.351Z,14.90
2023-05-09T03:08:32.341Z,15.10
2023-05-09T03:09:32.309Z,14.60
2023-05-09T03:10:32.294Z,15.10
2023-05-09T03:11:32.336Z,15.70
2023-05-09T03:12:32.306Z,14.80
2023-05-09T03:13:32.280Z,15.30
2023-05-09T03:14:32.287Z,15.00
2023-05-09T03:15:32.285Z,15.30
2023-05-09T03:16:32.273Z,15.80
2023-05-09T03:17:32.318Z,15.20
2023-05-09T03:18:32.335Z,15.40
2023-05-09T03:19:32.255Z,15.40
2023-05-09T03:20:32.229Z,14.10
2023-05-09T03:21:32.251Z,15.50
2023-05-09T03:22:32.212Z,15.30
2023-05-09T03:23:32.263Z,14.70
2023-05-09T03:24:32.218Z,15.10
2023-05-09T03:25:32.593Z,15.30
2023-05-09T03:26:32.201Z,14.40
2023-05-09T03:27:32.198Z,14.50
2023-05-09T03:28:32.178Z,14.80
2023-05-09T03:29:32.188Z,15.50
2023-05-09T03:30:32.197Z,16.60
2023-05-09T03:31:32.256Z,15.30
2023-05-09T03:32:32.200Z,15.30
2023-05-09T03:33:32.170Z,14.60
2023-05-09T03:34:32.238Z,14.40
2023-05-09T03:35:32.215Z,13.60
2023-05-09T03:36:32.165Z,14.30
2023-05-09T03:37:32.167Z,14.50
2023-05-09T03:38:32.208Z,12.90
2023-05-09T03:39:32.122Z,13.80
2023-05-09T03:40:32.118Z,13.40
2023-05-09T03:41:32.134Z,12.10
2023-05-09T03:42:32.143Z,12.90
2023-05-09T03:43:32.127Z,13.60
2023-05-09T03:44:32.094Z,15.30
2023-05-09T03:45:32.093Z,15.40
2023-05-09T03:46:32.176Z,15.00
2023-05-09T03:47:32.142Z,15.70
2023-05-09T03:48:32.078Z,15.00
2023-05-09T03:49:32.055Z,13.10
2023-05-09T03:50:32.124Z,14.20
2023-05-09T03:51:32.055Z,14.70
2023-05-09T03:52:32.057Z,14.20
2023-05-09T03:53:32.081Z,14.40
2023-05-09T03:54:32.015Z,15.60
2023-05-09T03:55:32.054Z,16.10
2023-05-09T03:56:32.022Z,16.70
2023-05-09T03:57:32.063Z,16.70
2023-05-09T03:58:32.010Z,16.70
2023-05-09T03:59:32.007Z,17.10
2023-05-09T04:00:32.001Z,15.30
2023-05-09T04:01:32.018Z,14.00
2023-05-09T04:02:32.128Z,13.10
2023-05-09T04:03:32.141Z,12.60
2023-05-09T04:04:31.955Z,11.50
2023-05-09T04:05:32.053Z,12.30
2023-05-09T04:06:32.044Z,11.90
2023-05-09T04:07:31.992Z,10.60
2023-05-09T04:08:31.931Z,10.00
2023-05-09T04:09:31.951Z,10.50
2023-05-09T04:10:31.926Z,11.60
2023-05-09T04:11:31.951Z,12.00
2023-05-09T04:12:31.924Z,11.30
2023-05-09T04:13:31.979Z,9.80
2023-05-09T04:14:31.912Z,10.40
2023-05-09T04:15:31.913Z,10.50
2023-05-09T04:16:31.918Z,10.10
2023-05-09T04:17:31.905Z,9.70
2023-05-09T04:18:31.891Z,9.30
2023-05-09T04:19:31.927Z,9.00
2023-05-09T04:20:31.848Z,8.60
2023-05-09T04:21:31.879Z,8.80
2023-05-09T04:22:31.936Z,8.30
2023-05-09T04:23:31.857Z,8.30
2023-05-09T04:24:31.851Z,8.50
2023-05-09T04:25:31.851Z,8.60
2023-05-09T04:26:31.811Z,9.10
2023-05-09T04:27:31.819Z,8.10
2023-05-09T04:28:31.827Z,8.20
2023-05-09T04:29:31.792Z,8.70
2023-05-09T04:30:31.816Z,9.20
2023-05-09T04:31:31.832Z,9.40
2023-05-09T04:32:31.850Z,9.20
2023-05-09T04:33:31.768Z,9.60
2023-05-09T04:34:31.770Z,9.00
2023-05-09T04:35:31.761Z,8.70
2023-05-09T04:36:31.735Z,8.30
2023-05-09T04:37:31.775Z,8.30
2023-05-09T04:38:31.856Z,8.30
2023-05-09T04:39:31.719Z,7.40
2023-05-09T04:40:31.714Z,6.90
2023-05-09T04:41:31.729Z,6.80
2023-05-09T04:42:31.690Z,6.60
2023-05-09T04:43:31.733Z,7.20
2023-05-09T04:44:31.687Z,7.20
2023-05-09T04:45:31.708Z,6.50
2023-05-09T04:46:31.692Z,7.00
2023-05-09T04:47:31.694Z,7.00
2023-05-09T04:48:31.705Z,6.80
2023-05-09T04:49:31.759Z,6.70
2023-05-09T04:50:31.655Z,6.70
2023-05-09T04:51:31.755Z,6.30
2023-05-09T04:52:31.649Z,6.80
2023-05-09T04:53:31.620Z,7.00
2023-05-09T04:54:31.696Z,7.00
2023-05-09T04:55:31.605Z,6.50
2023-05-09T04:56:31.584Z,6.70
2023-05-09T04:57:31.610Z,6.60
2023-05-09T04:58:31.671Z,6.80
2023-05-09T04:59:31.579Z,6.50
2023-05-09T05:00:31.578Z,6.90
2023-05-09T05:01:31.609Z,7.00
2023-05-09T05:02:31.597Z,6.00
2023-05-09T05:03:31.580Z,6.50
2023-05-09T05:04:31.551Z,6.20
2023-05-09T05:05:33.674Z,6.10
2023-05-09T05:06:31.508Z,5.90
2023-05-09T05:07:31.520Z,6.10
2023-05-09T05:08:31.513Z,6.10
2023-05-09T05:09:31.521Z,5.70
2023-05-09T05:10:31.574Z,5.70
2023-05-09T05:11:31.504Z,5.60
2023-05-09T05:12:31.511Z,5.50
2023-05-09T05:13:31.483Z,5.30
2023-05-09T05:14:31.458Z,5.50
2023-05-09T05:15:31.464Z,5.30
2023-05-09T05:16:31.459Z,6.40
2023-05-09T05:17:31.490Z,6.50
2023-05-09T05:18:31.451Z,5.30
2023-05-09T05:19:31.455Z,4.80
2023-05-09T05:20:31.402Z,5.00
2023-05-09T05:21:31.448Z,5.80
2023-05-09T05:22:32.766Z,5.70
2023-05-09T05:23:31.401Z,5.00
2023-05-09T05:24:31.398Z,5.40
2023-05-09T05:25:31.426Z,5.00
2023-05-09T05:26:31.461Z,5.70
2023-05-09T05:27:31.362Z,4.90
2023-05-09T05:28:31.608Z,5.30
2023-05-09T05:29:31.351Z,5.40
2023-05-09T05:30:34.016Z,5.00
2023-05-09T05:31:31.384Z,4.80
2023-05-09T05:32:31.351Z,4.60
2023-05-09T05:33:31.308Z,4.80
2023-05-09T05:34:31.325Z,4.90
2023-05-09T05:35:31.296Z,5.40
2023-05-09T05:36:31.272Z,5.10
2023-05-09T05:37:31.307Z,5.00
2023-05-09T05:38:31.260Z,5.20
2023-05-09T05:39:31.289Z,4.90
2023-05-09T05:40:31.268Z,4.90
2023-05-09T05:41:31.251Z,4.60
2023-05-09T05:42:31.313Z,4.90
2023-05-09T05:43:31.227Z,5.00
2023-05-09T05:44:31.260Z,5.90
2023-05-09T05:45:31.301Z,4.80
2023-05-09T05:46:31.230Z,5.50
2023-05-09T05:47:31.252Z,6.00
2023-05-09T05:48:31.253Z,5.60
2023-05-09T05:49:31.218Z,5.90
2023-05-09T05:50:31.217Z,5.80
2023-05-09T05:51:31.196Z,5.40
2023-05-09T05:52:31.181Z,5.50
2023-05-09T05:53:32.684Z,5.30
2023-05-09T05:54:31.146Z,5.40
2023-05-09T05:55:31.155Z,5.40
2023-05-09T05:56:31.134Z,6.00
2023-05-09T05:57:31.176Z,5.10
2023-05-09T05:58:31.208Z,5.00
2023-05-09T05:59:31.198Z,4.80
2023-05-09T06:00:31.076Z,4.70
2023-05-09T06:01:31.106Z,4.80
2023-05-09T06:02:31.339Z,4.70
2023-05-09T06:03:31.295Z,4.50
2023-05-09T06:04:31.059Z,4.90
2023-05-09T06:05:31.066Z,5.30
2023-05-09T06:06:31.067Z,4.90
2023-05-09T06:07:31.042Z,4.90
2023-05-09T06:08:31.062Z,5.20
2023-05-09T06:09:31.054Z,5.20
2023-05-09T06:10:30.999Z,5.00
2023-05-09T06:11:31.008Z,4.90
2023-05-09T06:12:31.019Z,5.30
2023-05-09T06:13:31.008Z,5.00
2023-05-09T06:14:31.058Z,4.80
2023-05-09T06:15:31.004Z,4.90
2023-05-09T06:16:31.037Z,4.70
2023-05-09T06:17:30.973Z,4.70
2023-05-09T06:18:30.931Z,5.20
2023-05-09T06:19:30.993Z,5.80
2023-05-09T06:20:30.926Z,5.20
2023-05-09T06:21:30.924Z,5.20
2023-05-09T06:22:30.929Z,4.80
2023-05-09T06:23:30.904Z,5.40
2023-05-09T06:24:35.835Z,4.80
2023-05-09T06:25:31.913Z,4.90
2023-05-09T06:26:30.867Z,4.80
2023-05-09T06:27:30.904Z,4.90
2023-05-09T06:28:30.884Z,4.90
2023-05-09T06:29:30.887Z,5.10
2023-05-09T06:30:30.929Z,4.80
2023-05-09T06:31:30.930Z,4.70
2023-05-09T06:32:30.893Z,4.80
2023-05-09T06:33:30.832Z,5.10
2023-05-09T06:34:30.840Z,5.00
2023-05-09T06:35:30.815Z,4.80
2023-05-09T06:36:30.840Z,5.10
2023-05-09T06:37:30.806Z,5.10
2023-05-09T06:38:30.801Z,5.10
2023-05-09T06:39:30.828Z,5.10
2023-05-09T06:40:30.782Z,4.80
2023-05-09T06:41:30.799Z,5.10
2023-05-09T06:42:30.752Z,4.50
2023-05-09T06:43:30.759Z,4.90
2023-05-09T06:44:30.731Z,4.50
2023-05-09T06:45:30.771Z,4.60
2023-05-09T06:46:30.899Z,4.60
2023-05-09T06:47:30.766Z,4.80
2023-05-09T06:48:30.713Z,5.10
2023-05-09T06:49:30.761Z,4.80
2023-05-09T06:50:32.835Z,5.00
2023-05-09T06:51:30.704Z,5.00
2023-05-09T06:52:30.683Z,4.80
2023-05-09T06:53:30.690Z,4.90
2023-05-09T06:54:30.691Z,5.00
2023-05-09T06:55:30.673Z,4.60
2023-05-09T06:56:30.659Z,4.70
2023-05-09T06:57:30.673Z,5.00
2023-05-09T06:58:30.643Z,4.70
2023-05-09T06:59:30.687Z,5.20
2023-05-09T07:00:30.639Z,5.30
2023-05-09T07:01:30.655Z,4.70
2023-05-09T07:02:30.750Z,4.60
2023-05-09T07:03:30.641Z,4.70
2023-05-09T07:04:30.606Z,5.00
2023-05-09T07:05:30.632Z,4.60
2023-05-09T07:06:30.587Z,5.00
2023-05-09T07:07:30.604Z,5.10
2023-05-09T07:08:30.634Z,5.20
2023-05-09T07:09:30.589Z,4.80
2023-05-09T07:10:30.568Z,4.80
2023-05-09T07:11:30.568Z,4.70
2023-05-09T07:12:30.541Z,4.70
2023-05-09T07:13:30.594Z,5.10
2023-05-09T07:14:30.546Z,4.90
2023-05-09T07:15:41.103Z,5.60
2023-05-09T07:16:31.589Z,5.30
2023-05-09T07:17:30.562Z,5.10
2023-05-09T07:18:30.615Z,4.70
2023-05-09T07:19:30.554Z,5.10
2023-05-09T07:20:30.489Z,4.70
2023-05-09T07:21:30.504Z,5.10
2023-05-09T07:22:32.140Z,4.90
2023-05-09T07:23:30.510Z,4.60
2023-05-09T07:24:30.463Z,5.20
2023-05-09T07:25:30.479Z,4.90
2023-05-09T07:26:30.485Z,5.50
2023-05-09T07:27:30.475Z,5.50
2023-05-09T07:28:30.501Z,4.80
2023-05-09T07:29:30.453Z,5.50
2023-05-09T07:30:30.449Z,5.70
2023-05-09T07:31:30.445Z,5.20
2023-05-09T07:32:30.460Z,5.70
2023-05-09T07:33:30.427Z,5.90
2023-05-09T07:34:30.562Z,5.70
2023-05-09T07:35:30.425Z,5.30
2023-05-09T07:36:30.477Z,4.70
2023-05-09T07:37:30.407Z,4.70
2023-05-09T07:38:30.372Z,6.00
2023-05-09T07:39:30.401Z,5.30
2023-05-09T07:40:30.369Z,5.30
2023-05-09T07:41:30.371Z,4.90
2023-05-09T07:42:30.423Z,5.30
2023-05-09T07:43:30.348Z,5.10
2023-05-09T07:44:30.341Z,5.30
2023-05-09T07:45:30.377Z,5.70
2023-05-09T07:46:30.392Z,6.20
2023-05-09T07:47:30.361Z,6.50
2023-05-09T07:48:30.321Z,6.60
2023-05-09T07:49:30.324Z,6.20
2023-05-09T07:50:31.050Z,6.20
2023-05-09T07:51:30.303Z,5.90
2023-05-09T07:52:30.306Z,5.80
2023-05-09T07:53:30.302Z,6.30
2023-05-09T07:54:30.259Z,8.80
2023-05-09T07:55:30.279Z,7.30
2023-05-09T07:56:30.258Z,8.00
2023-05-09T07:57:30.264Z,8.10
2023-05-09T07:58:30.268Z,8.40
2023-05-09T07:59:30.253Z,7.60
2023-05-09T08:00:31.049Z,8.40
2023-05-09T08:01:30.241Z,8.40
2023-05-09T08:02:30.283Z,8.50
2023-05-09T08:03:30.304Z,9.30
2023-05-09T08:04:30.259Z,8.80
2023-05-09T08:05:30.208Z,8.50
2023-05-09T08:06:30.278Z,7.80
2023-05-09T08:07:30.222Z,9.10
2023-05-09T08:08:30.188Z,8.20
2023-05-09T08:09:30.179Z,8.50
2023-05-09T08:10:30.158Z,7.80
2023-05-09T08:11:30.189Z,7.70
2023-05-09T08:12:30.139Z,8.50
2023-05-09T08:13:30.238Z,8.70
2023-05-09T08:14:30.124Z,8.90
2023-05-09T08:15:30.147Z,8.80
2023-05-09T08:16:30.263Z,8.70
2023-05-09T08:17:30.197Z,9.00
2023-05-09T08:18:30.095Z,9.40
2023-05-09T08:19:30.126Z,9.10
2023-05-09T08:20:30.081Z,8.90
2023-05-09T08:21:30.102Z,9.70
2023-05-09T08:22:30.167Z,9.40
2023-05-09T08:23:30.091Z,9.80
2023-05-09T08:24:30.069Z,9.90
2023-05-09T08:25:30.212Z,9.80
2023-05-09T08:26:30.045Z,9.30
2023-05-09T08:27:30.057Z,9.50
2023-05-09T08:28:30.056Z,9.20
2023-05-09T08:29:30.070Z,9.00
2023-05-09T08:30:30.018Z,9.20
2023-05-09T08:31:30.116Z,9.30
2023-05-09T08:32:30.045Z,10.10
2023-05-09T08:33:30.015Z,9.80
2023-05-09T08:34:29.992Z,10.00
2023-05-09T08:35:30.041Z,10.30
2023-05-09T08:36:29.989Z,10.00
2023-05-09T08:37:30.029Z,9.90
2023-05-09T08:38:30.052Z,10.60
2023-05-09T08:39:30.032Z,10.10
2023-05-09T08:40:29.982Z,10.10
2023-05-09T08:41:29.963Z,9.90
2023-05-09T08:42:29.942Z,9.30
2023-05-09T08:43:29.948Z,9.20
2023-05-09T08:44:29.932Z,9.60
2023-05-09T08:45:30.038Z,9.90
2023-05-09T08:46:29.987Z,9.70
2023-05-09T08:47:29.963Z,9.20
2023-05-09T08:48:29.922Z,9.40
2023-05-09T08:49:29.938Z,9.20
2023-05-09T08:50:29.902Z,9.40
2023-05-09T08:51:29.905Z,10.70
2023-05-09T08:52:29.910Z,10.70
2023-05-09T08:53:29.915Z,9.80
2023-05-09T08:54:29.983Z,10.30
2023-05-09T08:55:29.881Z,10.00
2023-05-09T08:56:29.837Z,11.30
2023-05-09T08:57:29.852Z,11.30
2023-05-09T08:58:29.824Z,11.10
2023-05-09T08:59:29.856Z,11.90
2023-05-09T09:00:29.812Z,12.10
2023-05-09T09:01:29.861Z,10.70
2023-05-09T09:02:29.893Z,10.50
2023-05-09T09:03:29.843Z,10.80
2023-05-09T09:04:29.839Z,10.40
2023-05-09T09:06:29.798Z,9.80
2023-05-09T09:07:31.171Z,9.30
2023-05-09T09:08:29.778Z,9.40
2023-05-09T09:09:29.765Z,9.30
2023-05-09T09:10:29.905Z,10.50
2023-05-09T09:11:29.766Z,10.00
2023-05-09T09:12:29.733Z,9.90
2023-05-09T09:13:29.826Z,9.70
2023-05-09T09:14:29.720Z,10.60
2023-05-09T09:15:29.753Z,10.50
2023-05-09T09:16:29.752Z,10.30
2023-05-09T09:17:29.741Z,10.30
2023-05-09T09:18:29.686Z,9.30
2023-05-09T09:19:29.704Z,10.60
2023-05-09T09:20:29.692Z,10.60
2023-05-09T09:21:29.703Z,10.60
2023-05-09T09:22:29.666Z,10.60
2023-05-09T09:23:29.683Z,11.10
2023-05-09T09:24:29.652Z,10.30
2023-05-09T09:25:29.679Z,10.40
2023-05-09T09:26:29.731Z,10.40
2023-05-09T09:27:29.636Z,10.80
2023-05-09T09:28:29.681Z,10.00
2023-05-09T09:29:29.637Z,9.70
2023-05-09T09:30:29.596Z,10.00
2023-05-09T09:31:29.618Z,9.40
2023-05-09T09:32:29.603Z,9.70
2023-05-09T09:33:29.639Z,8.90
2023-05-09T09:34:29.577Z,8.50
2023-05-09T09:35:29.597Z,8.20
2023-05-09T09:36:29.575Z,8.70
2023-05-09T09:37:29.593Z,8.90
2023-05-09T09:38:29.541Z,9.60
2023-05-09T09:39:29.572Z,8.80
2023-05-09T09:40:29.544Z,8.90
2023-05-09T09:41:29.576Z,9.60
2023-05-09T09:42:29.656Z,8.70
2023-05-09T09:43:29.560Z,8.70
2023-05-09T09:44:29.502Z,8.40
2023-05-09T09:45:29.512Z,8.80
2023-05-09T09:46:29.520Z,9.40
2023-05-09T09:47:29.517Z,9.10
2023-05-09T09:48:29.497Z,8.90
2023-05-09T09:49:29.492Z,7.70
2023-05-09T09:50:29.468Z,7.90
2023-05-09T09:51:29.463Z,8.10
2023-05-09T09:52:29.454Z,8.10
2023-05-09T09:53:29.487Z,7.90
2023-05-09T09:54:29.476Z,7.60
2023-05-09T09:55:29.444Z,7.70
2023-05-09T09:56:29.429Z,7.80
2023-05-09T09:57:29.442Z,7.60
2023-05-09T09:58:29.532Z,7.60
2023-05-09T09:59:29.451Z,7.80
2023-05-09T10:00:29.392Z,7.80
2023-05-09T10:01:29.481Z,7.50
2023-05-09T10:02:29.384Z,7.90
2023-05-09T10:03:29.416Z,6.80
2023-05-09T10:04:29.352Z,7.40
2023-05-09T10:05:29.404Z,7.70
2023-05-09T10:06:29.343Z,8.10
2023-05-09T10:07:29.369Z,7.10
2023-05-09T10:08:29.351Z,6.90
2023-05-09T10:09:29.353Z,7.30
2023-05-09T10:10:29.314Z,6.50
2023-05-09T10:11:29.360Z,6.20
2023-05-09T10:12:29.313Z,7.30
2023-05-09T10:13:29.378Z,7.10
2023-05-09T10:14:29.375Z,6.90
2023-05-09T10:15:33.459Z,7.00
2023-05-09T10:16:40.135Z,6.80
2023-05-09T10:17:30.430Z,6.80
2023-05-09T10:18:29.511Z,6.40
2023-05-09T10:19:29.275Z,6.10
2023-05-09T10:20:29.246Z,5.90
2023-05-09T10:21:29.285Z,7.10
2023-05-09T10:22:29.239Z,6.30
2023-05-09T10:23:29.238Z,6.00
2023-05-09T10:24:29.224Z,6.30
2023-05-09T10:25:29.225Z,6.10
2023-05-09T10:26:29.251Z,6.50
2023-05-09T10:27:29.234Z,6.70
2023-05-09T10:28:29.186Z,6.60
2023-05-09T10:29:29.229Z,6.10
2023-05-09T10:30:29.383Z,5.80
2023-05-09T10:31:29.530Z,6.00
2023-05-09T10:32:29.162Z,5.50
2023-05-09T10:33:29.173Z,6.00
2023-05-09T10:34:29.174Z,6.70
2023-05-09T10:35:29.161Z,5.80
2023-05-09T10:36:29.138Z,6.10
2023-05-09T10:37:29.584Z,6.30
2023-05-09T10:38:29.131Z,6.80
2023-05-09T10:39:29.171Z,6.10
2023-05-09T10:40:29.097Z,6.40
2023-05-09T10:41:29.106Z,6.40
2023-05-09T10:42:29.094Z,5.70
2023-05-09T10:43:29.467Z,6.00
2023-05-09T10:44:29.081Z,6.00
2023-05-09T10:45:29.116Z,5.80
2023-05-09T10:46:29.188Z,5.60
2023-05-09T10:47:29.116Z,6.60
2023-05-09T10:48:29.046Z,6.50
2023-05-09T10:49:29.051Z,5.90
2023-05-09T10:50:29.021Z,6.20
2023-05-09T10:51:29.097Z,5.80
2023-05-09T10:52:29.014Z,6.00
2023-05-09T10:53:29.033Z,5.60
2023-05-09T10:54:30.899Z,4.90
2023-05-09T10:55:29.022Z,6.40
2023-05-09T10:56:29.014Z,7.00
2023-05-09T10:57:29.032Z,6.20
2023-05-09T10:58:28.987Z,6.40
2023-05-09T10:59:28.988Z,6.50
2023-05-09T11:00:28.967Z,6.50
2023-05-09T11:01:29.025Z,6.30
2023-05-09T11:02:29.137Z,5.60
2023-05-09T11:03:29.042Z,6.50
2023-05-09T11:04:28.980Z,6.40
2023-05-09T11:05:28.970Z,6.30
2023-05-09T11:06:28.940Z,5.90
2023-05-09T11:07:28.932Z,6.20
2023-05-09T11:08:28.935Z,6.60
2023-05-09T11:09:28.948Z,6.40
2023-05-09T11:10:28.890Z,7.00
2023-05-09T11:11:28.918Z,6.50
2023-05-09T11:12:28.888Z,6.10
2023-05-09T11:13:28.928Z,5.90
2023-05-09T11:14:28.881Z,5.70
2023-05-09T11:15:28.895Z,5.70
2023-05-09T11:16:28.907Z,5.90
2023-05-09T11:17:28.901Z,6.20
2023-05-09T11:18:28.933Z,5.70
2023-05-09T11:19:28.848Z,5.30
2023-05-09T11:20:28.824Z,5.50
2023-05-09T11:21:28.856Z,5.80
2023-05-09T11:22:28.838Z,5.70
2023-05-09T11:23:28.826Z,5.50
2023-05-09T11:24:28.803Z,5.30
2023-05-09T11:25:28.848Z,5.50
2023-05-09T11:26:28.796Z,5.60
2023-05-09T11:27:28.798Z,5.20
2023-05-09T11:28:28.822Z,5.50
2023-05-09T11:29:28.804Z,5.00
2023-05-09T11:30:28.787Z,5.40
2023-05-09T11:31:28.806Z,5.00
2023-05-09T11:32:28.791Z,5.10
2023-05-09T11:33:28.808Z,5.00
2023-05-09T11:34:28.843Z,5.10
2023-05-09T11:35:28.807Z,5.10
2023-05-09T11:36:28.727Z,4.90
2023-05-09T11:37:28.732Z,5.50
2023-05-09T11:38:28.715Z,5.70
2023-05-09T11:39:28.717Z,5.30
2023-05-09T11:40:28.709Z,5.10
2023-05-09T11:41:28.755Z,5.30
2023-05-09T11:42:28.679Z,5.70
2023-05-09T11:43:28.692Z,5.10
2023-05-09T11:44:28.689Z,5.00
2023-05-09T11:45:28.714Z,4.60
2023-05-09T11:46:28.700Z,4.40
2023-05-09T11:47:28.737Z,4.20
2023-05-09T11:48:28.655Z,4.20
2023-05-09T11:49:28.642Z,4.40
2023-05-09T11:50:28.723Z,4.00
2023-05-09T11:51:28.635Z,3.60
2023-05-09T11:52:28.620Z,3.10
2023-05-09T11:53:28.640Z,3.30
2023-05-09T11:54:28.606Z,3.40
2023-05-09T11:55:28.636Z,3.10
2023-05-09T11:56:28.602Z,3.80
2023-05-09T11:57:28.590Z,3.30
2023-05-09T11:58:28.567Z,3.10
2023-05-09T11:59:28.573Z,2.70
2023-05-09T12:00:28.575Z,2.70
2023-05-09T12:01:28.585Z,2.90
2023-05-09T12:02:28.608Z,2.80
2023-05-09T12:03:28.772Z,3.00
2023-05-09T12:04:28.555Z,3.20
2023-05-09T12:05:28.556Z,3.10
2023-05-09T12:06:28.617Z,2.90
2023-05-09T12:07:28.522Z,2.80
2023-05-09T12:08:28.534Z,3.10
2023-05-09T12:09:28.527Z,2.90
2023-05-09T12:10:28.498Z,3.20
2023-05-09T12:11:28.510Z,2.90
2023-05-09T12:12:28.500Z,3.00
2023-05-09T12:13:28.539Z,3.00
2023-05-09T12:14:28.480Z,3.00
2023-05-09T12:15:28.465Z,3.20
2023-05-09T12:16:28.501Z,2.90
2023-05-09T12:17:28.466Z,3.00
2023-05-09T12:18:28.449Z,2.90
2023-05-09T12:19:28.475Z,3.10
2023-05-09T12:20:28.424Z,3.10
2023-05-09T12:21:28.434Z,2.60
2023-05-09T12:22:28.497Z,2.40
2023-05-09T12:23:28.434Z,2.80
2023-05-09T12:24:28.399Z,2.70
2023-05-09T12:25:28.435Z,2.80
2023-05-09T12:26:28.382Z,2.50
2023-05-09T12:27:28.396Z,2.60
2023-05-09T12:28:28.354Z,2.80
2023-05-09T12:29:28.367Z,3.00
2023-05-09T12:30:28.363Z,3.10
2023-05-09T12:31:28.373Z,2.60
2023-05-09T12:32:28.372Z,2.70
2023-05-09T12:33:28.343Z,2.50
2023-05-09T12:34:28.326Z,2.80
2023-05-09T12:35:28.363Z,2.60
2023-05-09T12:36:28.325Z,2.40
2023-05-09T12:37:28.309Z,2.40
2023-05-09T12:38:28.387Z,2.30
2023-05-09T12:39:28.306Z,2.60
2023-05-09T12:40:28.306Z,2.30
2023-05-09T12:41:37.145Z,2.30
2023-05-09T12:42:29.274Z,2.80
2023-05-09T12:43:28.289Z,2.30
2023-05-09T12:44:28.256Z,2.60
2023-05-09T12:45:28.262Z,2.40
2023-05-09T12:46:28.291Z,2.40
2023-05-09T12:47:28.306Z,2.30
2023-05-09T12:48:28.227Z,2.60
2023-05-09T12:49:28.230Z,2.50
2023-05-09T12:50:28.213Z,2.60
2023-05-09T12:51:28.220Z,2.50
2023-05-09T12:52:28.273Z,2.50
2023-05-09T12:53:28.228Z,2.40
2023-05-09T12:54:28.277Z,2.60
2023-05-09T12:55:28.212Z,2.40
2023-05-09T12:56:28.197Z,2.70
2023-05-09T12:57:30.768Z,2.40
2023-05-09T12:58:28.178Z,2.40
2023-05-09T12:59:28.170Z,2.30
2023-05-09T13:00:28.193Z,2.40
2023-05-09T13:01:28.203Z,2.80
2023-05-09T13:02:28.174Z,2.20
2023-05-09T13:03:28.172Z,2.30
2023-05-09T13:04:28.164Z,2.60
2023-05-09T13:05:28.121Z,2.40
2023-05-09T13:06:28.100Z,2.50
2023-05-09T13:07:28.205Z,2.30
2023-05-09T13:08:28.090Z,2.40
2023-05-09T13:09:28.098Z,2.50